Pagrindinis puslapis
METAR-TAF:

METAR-TAF

Oro uostai :

Ankara Etimesgut, Turkija

platuma: 39-57N, ilguma: 032-41E, Aukštis: 799 m

METAR: trūkstamas

Laikas: 08:52 (05:52 UTC)

Prognozė

Ataskaita buvo paskelbta 25 valandos ir 12 minutes, ne 04:40 UTC
Prognozė galioja nuo 09 metu 06 UTC su 09 metu 15 UTC
Vėjas 2 kt nuo kintamojo kryptimis
Matomumas 10 km arba daugiau
Išsisklaidę debesys ne aukštis 4000 ft

TAF: LTAD 090440Z 0906/0915 VRB02KT 9999 SCT040

Orai ataskaitas ir orų prognozės (METAR, TAF).

turimą stotys yra geltonos ir raudonos taškus žemėlapyje.

Perkelti pele per norėdami pamatyti stoties vardą.

Tada spustelėkite, norėdami matyti oro stebėjimo ir prognozės.

Norėdami pakeisti žemėlapį: spustelėkite ant žalios mygtukų su juodo kryžiaus žemyn,; žalią mygtuką su brūkšneliu, jei norite nutolinti; arba žalių rodyklių gretimoms žemėlapius.


METAR-TAF: